Time;durP1;ratioP1;P1;durP2;ratioP2;P2;SDS_P1;SDS_P2;PMS_P1;PMS_P2;Temp;Humidity;BMP_temperature;BMP_pressure;BME280_temperature;BME280_humidity;BME280_pressure;Samples;Min_cycle;Max_cycle;Signal;HPM_P1;HPM_P2
2022/10/07 00:00:15;;;;;;;1.88;1.75;;;;;;;19.14;62.18;98187.09;10516851;28;20103;-53
2022/10/07 00:06:03;;;;;;;2.15;1.92;;;;;;;19.12;62.20;98186.56;10539833;28;20514;-53
2022/10/07 00:11:25;;;;;;;1.80;1.70;;;;;;;19.11;62.17;98182.28;10513024;28;20492;-53
2022/10/07 00:16:45;;;;;;;2.00;1.70;;;;;;;19.13;62.24;98173.88;10508086;28;20057;-53
2022/10/07 00:22:04;;;;;;;2.83;2.15;;;;;;;19.11;62.03;98170.66;10516079;28;20055;-52
2022/10/07 00:27:23;;;;;;;3.13;1.83;;;;;;;19.10;62.18;98169.84;10543404;28;20052;-54
2022/10/07 00:32:45;;;;;;;2.83;2.08;;;;;;;19.10;62.18;98169.84;10510097;28;20500;-53
2022/10/07 00:38:04;;;;;;;2.22;1.90;;;;;;;19.10;62.14;98169.06;10516395;28;20059;-53
2022/10/07 00:43:30;;;;;;;1.80;1.70;;;;;;;19.09;62.03;98157.44;10511397;28;20053;-53
2022/10/07 00:48:49;;;;;;;2.05;1.85;;;;;;;19.08;62.12;98150.44;10511665;28;20450;-53
2022/10/07 00:54:12;;;;;;;1.77;1.65;;;;;;;19.08;62.10;98150.44;10529997;28;20048;-53
2022/10/07 00:59:33;;;;;;;1.85;1.75;;;;;;;19.08;62.17;98139.63;10490557;28;20048;-53
2022/10/07 01:04:54;;;;;;;2.70;1.90;;;;;;;19.09;62.08;98140.41;10525190;28;20046;-53
2022/10/07 01:10:17;;;;;;;2.38;2.17;;;;;;;19.08;62.09;98128.03;10522039;28;20056;-53
2022/10/07 01:15:51;;;;;;;1.70;1.60;;;;;;;19.07;62.12;98115.59;10503190;28;20123;-53
2022/10/07 01:21:21;;;;;;;1.95;1.73;;;;;;;19.07;62.13;98119.13;10497508;28;20499;-53
2022/10/07 01:26:54;;;;;;;1.63;1.52;;;;;;;19.04;62.16;98122.38;10525493;28;20113;-54
2022/10/07 01:32:19;;;;;;;1.70;1.60;;;;;;;19.04;62.04;98114.28;10518044;28;20055;-53
2022/10/07 01:37:44;;;;;;;1.40;1.30;;;;;;;19.03;62.03;98107.25;10516504;28;20048;-53
2022/10/07 01:43:05;;;;;;;1.92;1.73;;;;;;;19.04;62.04;98102.69;10525618;28;20074;-53
2022/10/07 01:48:24;;;;;;;1.77;1.65;;;;;;;19.02;62.06;98089.47;10524960;28;20060;-53
2022/10/07 01:54:03;;;;;;;1.83;1.60;;;;;;;19.03;62.10;98090.25;10511180;28;20049;-53
2022/10/07 01:59:50;;;;;;;2.25;1.70;;;;;;;19.03;62.06;98072.16;10511431;28;20101;-53
2022/10/07 02:05:28;;;;;;;1.45;1.35;;;;;;;19.01;62.18;98066.25;10501905;28;20154;-53
2022/10/07 02:11:10;;;;;;;1.73;1.60;;;;;;;19.01;62.01;98062.75;10517722;28;20052;-53
2022/10/07 02:16:47;;;;;;;2.10;1.63;;;;;;;19.00;62.13;98056.53;10521457;28;20466;-53
2022/10/07 02:22:09;;;;;;;2.38;1.90;;;;;;;19.00;62.07;98053.03;10513167;28;20058;-53
2022/10/07 02:27:34;;;;;;;1.50;1.40;;;;;;;19.00;62.06;98058.44;10508108;28;20057;-53
2022/10/07 02:32:58;;;;;;;1.80;1.48;;;;;;;18.99;61.99;98044.13;10495401;28;20051;-53
2022/10/07 02:38:18;;;;;;;1.73;1.60;;;;;;;18.99;61.87;98038.72;10511273;28;20037;-53
2022/10/07 02:43:49;;;;;;;1.67;1.40;;;;;;;18.96;61.91;98040.09;10513723;28;20122;-53
2022/10/07 02:49:13;;;;;;;1.52;1.42;;;;;;;18.99;62.11;98035.22;10512299;28;20048;-53
2022/10/07 02:55:05;;;;;;;1.30;1.20;;;;;;;18.96;61.95;98020.41;10497482;28;20123;-53
2022/10/07 03:00:27;;;;;;;1.42;1.33;;;;;;;18.96;61.91;98023.91;10514000;28;20560;-54
2022/10/07 03:05:48;;;;;;;1.85;1.40;;;;;;;18.97;62.02;98016.59;10508037;28;20037;-53
2022/10/07 03:11:09;;;;;;;1.55;1.45;;;;;;;18.94;61.95;98012.59;10523972;28;20044;-53
2022/10/07 03:16:28;;;;;;;1.48;1.38;;;;;;;18.95;61.91;98011.50;10534837;28;20052;-53
2022/10/07 03:21:48;;;;;;;1.50;1.40;;;;;;;18.94;61.93;98007.19;10545705;28;20121;-52
2022/10/07 03:27:08;;;;;;;1.40;1.30;;;;;;;18.94;61.98;97999.09;10524039;28;20063;-53
2022/10/07 03:32:29;;;;;;;1.60;1.50;;;;;;;18.93;61.99;97992.09;10518018;28;20048;-53
2022/10/07 03:37:50;;;;;;;1.55;1.40;;;;;;;18.92;62.04;98001.28;10491225;28;20048;-53
2022/10/07 03:43:10;;;;;;;1.48;1.38;;;;;;;18.92;62.06;97992.38;10511615;28;20053;-53
2022/10/07 03:48:30;;;;;;;1.65;1.50;;;;;;;18.92;61.94;97989.69;10509354;28;20412;-53
2022/10/07 03:53:53;;;;;;;1.60;1.50;;;;;;;18.92;61.97;97981.59;10557566;28;20047;-53
2022/10/07 03:59:13;;;;;;;1.23;1.13;;;;;;;18.91;62.05;97969.16;10520996;28;20430;-54
2022/10/07 04:04:33;;;;;;;1.60;1.50;;;;;;;18.92;62.03;97973.47;10516087;28;20041;-53
2022/10/07 04:09:53;;;;;;;1.60;1.50;;;;;;;18.92;61.94;97968.09;10517052;28;20056;-53
2022/10/07 04:15:13;;;;;;;1.40;1.30;;;;;;;18.91;62.01;97955.66;10501651;28;20052;-53
2022/10/07 04:20:36;;;;;;;2.05;1.33;;;;;;;18.89;61.90;97947.84;10491612;28;20060;-53
2022/10/07 04:25:56;;;;;;;1.40;1.30;;;;;;;18.90;61.87;97948.66;10490419;28;20486;-53
2022/10/07 04:31:16;;;;;;;1.45;1.35;;;;;;;18.91;61.81;97952.97;10515590;28;20043;-53
2022/10/07 04:36:39;;;;;;;1.40;1.30;;;;;;;18.91;61.83;97944.88;10489160;28;20077;-54
2022/10/07 04:42:05;;;;;;;1.40;1.30;;;;;;;18.91;61.81;97936.75;10501045;28;20538;-54
2022/10/07 04:47:24;;;;;;;1.52;1.38;;;;;;;18.92;61.56;97939.19;10527476;28;20050;-53
2022/10/07 04:52:45;;;;;;;1.25;1.15;;;;;;;18.94;61.68;97936.19;10526970;28;20048;-53
2022/10/07 04:58:05;;;;;;;1.52;1.10;;;;;;;18.95;61.58;97940.47;10518898;28;20047;-54
2022/10/07 05:03:26;;;;;;;1.35;1.25;;;;;;;18.96;61.48;97944.81;10488148;28;20104;-53
2022/10/07 05:08:47;;;;;;;1.40;1.30;;;;;;;18.98;61.40;97941.81;10505033;28;20177;-53
2022/10/07 05:14:07;;;;;;;1.40;1.30;;;;;;;19.01;61.46;97943.91;10490696;28;20130;-53
2022/10/07 05:19:28;;;;;;;1.30;1.20;;;;;;;19.00;61.36;97926.91;10490049;28;20503;-53
2022/10/07 05:24:48;;;;;;;1.42;1.30;;;;;;;19.03;61.39;97926.31;10504129;28;20132;-53
2022/10/07 05:30:08;;;;;;;1.27;1.17;;;;;;;19.05;61.32;97924.16;10494810;28;20055;-53
2022/10/07 05:35:30;;;;;;;1.50;1.40;;;;;;;19.08;61.20;97911.94;10499569;28;20093;-53
2022/10/07 05:41:01;;;;;;;1.38;1.20;;;;;;;19.10;61.22;97909.75;10508789;28;20059;-54
2022/10/07 05:46:23;;;;;;;1.30;1.20;;;;;;;19.13;61.28;97907.28;10511697;28;20446;-53
2022/10/07 05:51:47;;;;;;;1.30;1.20;;;;;;;19.16;61.23;97909.38;10500208;28;20055;-53
2022/10/07 05:57:08;;;;;;;1.25;1.15;;;;;;;19.18;61.28;97917.19;10502694;28;20458;-53
2022/10/07 06:02:28;;;;;;;1.10;1.00;;;;;;;19.19;61.21;97910.69;10493270;28;20492;-53
2022/10/07 06:07:48;;;;;;;1.63;1.10;;;;;;;19.22;61.19;97912.00;10485632;28;20056;-53
2022/10/07 06:13:08;;;;;;;1.00;1.00;;;;;;;19.23;61.32;97909.00;10518749;28;20045;-53
2022/10/07 06:18:29;;;;;;;1.20;1.10;;;;;;;19.25;61.18;97909.50;10493603;28;20056;-53
2022/10/07 06:23:50;;;;;;;1.20;1.02;;;;;;;19.26;61.08;97902.22;10533853;28;20097;-53
2022/10/07 06:29:12;;;;;;;1.30;1.20;;;;;;;19.29;61.05;97896.22;10521352;28;20123;-52
2022/10/07 06:34:32;;;;;;;1.20;1.10;;;;;;;19.29;61.20;97891.63;10508763;28;20047;-52
2022/10/07 06:39:52;;;;;;;1.27;1.17;;;;;;;19.31;61.12;97891.31;10524181;28;20531;-52
2022/10/07 06:45:12;;;;;;;1.35;1.10;;;;;;;19.31;61.12;97894.81;10522123;28;20117;-53
2022/10/07 06:50:32;;;;;;;1.20;1.10;;;;;;;19.33;61.05;97897.25;10495404;28;20403;-53
2022/10/07 06:55:58;;;;;;;1.10;1.00;;;;;;;19.34;61.10;97894.22;10486913;28;20504;-53
2022/10/07 07:01:19;;;;;;;1.00;1.00;;;;;;;19.34;61.14;97886.09;10551355;28;20395;-53
2022/10/07 07:06:38;;;;;;;1.00;1.00;;;;;;;19.35;60.98;97885.03;10525965;28;20048;-52
2022/10/07 07:12:01;;;;;;;1.20;1.10;;;;;;;19.38;61.08;97888.22;10486677;28;20054;-52
2022/10/07 07:17:27;;;;;;;1.17;1.08;;;;;;;19.39;61.08;97893.34;10483500;28;20511;-53
2022/10/07 07:22:48;;;;;;;3.15;1.10;;;;;;;19.39;61.12;97885.25;10525160;28;20045;-52
2022/10/07 07:28:08;;;;;;;1.00;0.90;;;;;;;19.40;61.06;97877.94;10497137;28;20056;-52
2022/10/07 07:33:28;;;;;;;0.90;0.90;;;;;;;19.40;61.03;97878.72;10501372;28;20048;-52
2022/10/07 07:38:56;;;;;;;1.10;1.08;;;;;;;19.42;60.76;97867.63;10540535;28;20550;-52
2022/10/07 07:44:17;;;;;;;1.07;1.03;;;;;;;19.42;60.77;97857.59;10492129;28;20550;-52
2022/10/07 07:49:37;;;;;;;1.50;1.25;;;;;;;19.43;60.77;97853.03;10515358;28;20052;-53
2022/10/07 07:54:58;;;;;;;1.23;1.10;;;;;;;19.43;60.67;97859.22;10497046;28;20051;-52
2022/10/07 08:00:18;;;;;;;1.00;1.00;;;;;;;19.44;60.55;97843.81;10532417;28;20458;-52
2022/10/07 08:05:48;;;;;;;1.08;1.00;;;;;;;19.44;60.69;97851.91;10504649;28;20057;-53
2022/10/07 08:11:12;;;;;;;1.27;1.17;;;;;;;19.44;60.60;97838.41;10534289;28;20052;-52
2022/10/07 08:16:33;;;;;;;1.27;1.15;;;;;;;19.44;60.65;97839.19;10531520;28;20048;-52
2022/10/07 08:21:57;;;;;;;1.35;1.20;;;;;;;19.45;60.68;97832.69;10519140;28;20050;-52
2022/10/07 08:27:19;;;;;;;1.20;1.10;;;;;;;19.45;60.67;97824.59;10504483;28;20055;-52
2022/10/07 08:32:40;;;;;;;1.02;1.00;;;;;;;19.46;60.73;97826.19;10512891;28;20043;-52
2022/10/07 08:37:59;;;;;;;1.30;1.20;;;;;;;19.46;60.68;97817.28;10530667;28;20036;-52
2022/10/07 08:43:22;;;;;;;5.05;3.83;;;;;;;19.46;59.15;97817.28;10521336;28;20051;-52
2022/10/07 08:48:48;;;;;;;6.47;4.45;;;;;;;19.41;57.31;97812.00;10527394;28;20071;-53
2022/10/07 08:54:11;;;;;;;7.00;5.35;;;;;;;19.36;56.41;97812.88;10511797;28;20053;-53
2022/10/07 08:59:32;;;;;;;8.43;6.28;;;;;;;19.31;55.16;97799.47;10511545;28;20124;-53
2022/10/07 09:05:28;;;;;;;9.18;6.55;;;;;;;19.28;55.15;97797.34;10512441;28;20052;-52
2022/10/07 09:10:49;;;;;;;9.45;6.75;;;;;;;19.24;54.33;97789.03;10470551;28;20101;-53
2022/10/07 09:16:32;;;;;;;8.25;6.78;;;;;;;19.21;53.71;97778.00;10510411;28;20051;-53
2022/10/07 09:21:51;;;;;;;9.52;6.75;;;;;;;19.19;54.03;97774.81;10490560;28;20044;-52
2022/10/07 09:27:12;;;;;;;9.02;6.80;;;;;;;19.17;54.05;97762.41;10490549;28;20056;-52
2022/10/07 09:32:33;;;;;;;9.60;6.63;;;;;;;19.18;54.13;97768.63;10515342;28;20492;-52
2022/10/07 09:38:07;;;;;;;9.30;6.22;;;;;;;19.20;54.31;97761.00;10515093;28;20415;-52
2022/10/07 09:43:29;;;;;;;7.78;5.70;;;;;;;19.21;54.45;97749.13;10506436;28;20063;-52
2022/10/07 09:48:51;;;;;;;8.35;5.40;;;;;;;19.22;54.23;97752.63;10513242;28;20122;-52
2022/10/07 09:54:18;;;;;;;7.35;5.43;;;;;;;19.23;54.54;97748.81;10547945;28;20047;-53
2022/10/07 09:59:39;;;;;;;6.30;5.57;;;;;;;19.23;54.22;97746.09;10513877;28;20055;-52
2022/10/07 10:04:58;;;;;;;7.82;5.68;;;;;;;19.21;54.29;97737.50;10513154;28;20458;-52
2022/10/07 10:10:30;;;;;;;9.32;5.03;;;;;;;19.21;54.37;97732.91;10525545;28;20067;-52
2022/10/07 10:15:49;;;;;;;6.53;5.38;;;;;;;19.20;54.27;97720.50;10520243;28;20084;-52
2022/10/07 10:21:19;;;;;;;8.35;4.90;;;;;;;19.20;54.67;97730.50;10508734;28;20052;-52
2022/10/07 10:26:43;;;;;;;6.22;5.47;;;;;;;19.19;54.18;97724.31;10508713;28;20067;-51
2022/10/07 10:32:36;;;;;;;7.40;5.88;;;;;;;19.17;53.85;97716.50;10500300;28;20496;-52
2022/10/07 10:38:17;;;;;;;9.00;5.75;;;;;;;19.16;54.14;97714.88;10486656;28;20048;-52
2022/10/07 10:43:59;;;;;;;7.70;5.75;;;;;;;19.17;54.27;97704.91;10536585;28;20052;-53
2022/10/07 10:49:37;;;;;;;9.23;6.85;;;;;;;19.16;54.06;97701.38;10499402;28;20057;-53
2022/10/07 10:55:17;;;;;;;7.55;6.38;;;;;;;19.15;53.97;97689.00;10503043;28;20109;-53
2022/10/07 11:00:48;;;;;;;8.52;6.35;;;;;;;19.15;54.31;97680.88;10523117;28;20105;-52
2022/10/07 11:06:10;;;;;;;9.25;6.88;;;;;;;19.14;54.22;97671.16;10501189;28;20052;-53
2022/10/07 11:11:29;;;;;;;11.07;6.90;;;;;;;19.15;54.57;97667.38;10512714;28;20449;-52
2022/10/07 11:16:52;;;;;;;10.85;7.03;;;;;;;19.15;54.62;97664.69;10504522;28;20393;-52
2022/10/07 11:22:18;;;;;;;12.43;9.65;;;;;;;19.16;54.48;97654.66;10496982;28;20491;-53
2022/10/07 11:27:38;;;;;;;15.52;9.85;;;;;;;19.15;54.61;97648.47;10486338;28;20446;-52
2022/10/07 11:33:00;;;;;;;13.52;10.13;;;;;;;19.16;54.38;97638.47;10540012;28;20060;-53
2022/10/07 11:38:23;;;;;;;12.07;9.32;;;;;;;19.14;54.89;97635.25;10518264;28;20059;-52
2022/10/07 11:43:45;;;;;;;11.30;8.60;;;;;;;19.14;55.32;97625.25;10528291;28;20052;-52
2022/10/07 11:49:17;;;;;;;12.55;8.77;;;;;;;19.14;55.46;97613.66;10541686;28;20052;-54
2022/10/07 11:55:10;;;;;;;13.73;8.45;;;;;;;19.15;55.56;97604.44;10511261;28;20048;-53
2022/10/07 12:00:39;;;;;;;12.52;9.43;;;;;;;19.15;55.77;97597.16;10510989;28;20060;-52
2022/10/07 12:06:16;;;;;;;12.70;9.52;;;;;;;19.15;56.06;97591.75;10519884;28;20040;-52
2022/10/07 12:11:35;;;;;;;13.43;9.50;;;;;;;19.15;56.35;97578.25;10521310;28;20515;-52
2022/10/07 12:16:55;;;;;;;12.60;9.18;;;;;;;19.15;56.48;97572.84;10523546;28;20131;-52
2022/10/07 12:22:16;;;;;;;12.25;9.30;;;;;;;19.15;56.70;97562.03;10501476;28;20055;-53
2022/10/07 12:27:36;;;;;;;11.93;9.48;;;;;;;19.16;56.91;97549.34;10521744;28;20064;-52
2022/10/07 12:32:55;;;;;;;12.80;9.57;;;;;;;19.16;57.01;97555.53;10506705;28;20052;-53
2022/10/07 12:38:25;;;;;;;10.70;9.20;;;;;;;19.16;56.99;97542.03;10492286;28;20062;-52
2022/10/07 12:44:09;;;;;;;10.73;9.43;;;;;;;19.16;57.13;97542.03;10523650;28;20051;-52
2022/10/07 12:49:36;;;;;;;11.95;9.25;;;;;;;19.17;57.26;97532.03;10512111;28;20051;-53
2022/10/07 12:54:59;;;;;;;11.55;9.38;;;;;;;19.16;57.26;97533.13;10505942;28;20067;-53
2022/10/07 13:00:23;;;;;;;18.20;10.30;;;;;;;19.17;57.59;97532.81;10515639;28;20040;-54
2022/10/07 13:06:01;;;;;;;14.40;10.45;;;;;;;19.17;58.37;97532.81;10502260;28;20048;-53
2022/10/07 13:11:35;;;;;;;16.30;12.45;;;;;;;19.17;58.66;97521.22;10500240;28;20060;-53
2022/10/07 13:17:22;;;;;;;16.75;11.55;;;;;;;19.19;59.37;97512.81;10515874;28;20051;-52
2022/10/07 13:22:46;;;;;;;12.93;10.00;;;;;;;19.19;59.55;97499.28;10488337;28;20052;-52
2022/10/07 13:28:05;;;;;;;11.07;9.38;;;;;;;19.18;59.67;97490.41;10504952;28;20078;-53
2022/10/07 13:33:27;;;;;;;13.02;9.02;;;;;;;19.19;59.43;97485.78;10522173;28;20053;-51
2022/10/07 13:38:52;;;;;;;11.13;9.25;;;;;;;19.18;59.54;97482.31;10523738;28;20488;-52
2022/10/07 13:44:14;;;;;;;11.65;8.93;;;;;;;19.17;59.31;97478.81;10527566;28;20048;-51
2022/10/07 13:49:38;;;;;;;10.35;8.65;;;;;;;19.18;59.43;97471.50;10526675;28;20106;-52
2022/10/07 13:54:58;;;;;;;9.60;8.63;;;;;;;19.17;59.31;97461.81;10521602;28;20514;-51
2022/10/07 14:00:17;;;;;;;10.85;8.45;;;;;;;19.17;59.27;97468.00;10510725;28;20105;-52
2022/10/07 14:05:46;;;;;;;11.20;8.50;;;;;;;19.17;59.24;97448.31;10520677;28;20132;-52
2022/10/07 14:11:07;;;;;;;;;;;;;;;19.16;59.29;97442.09;10511358;28;20048;-52
2022/10/07 14:16:26;;;;;;;11.35;7.65;;;;;;;19.17;59.40;97451.00;10536755;28;19924;-53
2022/10/07 14:21:46;;;;;;;9.27;8.00;;;;;;;19.16;59.25;97442.09;10498438;28;20404;-53
2022/10/07 14:27:36;;;;;;;9.40;8.20;;;;;;;19.15;59.36;97429.69;10525635;28;20430;-53
2022/10/07 14:38:45;;;;;;;9.10;8.10;;;;;;;19.17;59.26;97421.28;10484209;28;20056;-53
2022/10/07 14:44:06;;;;;;;9.52;8.02;;;;;;;19.15;59.08;97413.50;10532720;28;20043;-53
2022/10/07 14:49:26;;;;;;;9.35;7.82;;;;;;;19.16;58.99;97408.88;10502852;28;20052;-53
2022/10/07 14:54:47;;;;;;;9.15;7.53;;;;;;;19.16;59.08;97415.06;10498896;28;20052;-53
2022/10/07 15:00:28;;;;;;;8.60;7.45;;;;;;;19.16;59.01;97411.59;10535819;28;20059;-53
2022/10/07 15:05:47;;;;;;;9.77;7.88;;;;;;;19.13;58.90;97407.59;10501781;28;20049;-52
2022/10/07 15:11:07;;;;;;;9.45;7.30;;;;;;;19.13;59.00;97393.28;10508995;28;20113;-52
2022/10/07 15:16:26;;;;;;;8.43;7.53;;;;;;;19.12;59.04;97389.78;10505104;28;20055;-53
2022/10/07 15:21:46;;;;;;;8.00;7.13;;;;;;;19.13;58.96;97385.19;10501565;28;20053;-53
2022/10/07 15:27:08;;;;;;;9.05;7.82;;;;;;;19.12;58.94;97383.59;10515300;28;20114;-53
2022/10/07 15:32:29;;;;;;;8.68;7.70;;;;;;;19.12;58.89;97380.91;10520657;28;20126;-53
2022/10/07 15:37:48;;;;;;;8.35;7.47;;;;;;;19.12;58.87;97383.59;10519765;28;20060;-54
2022/10/07 15:43:09;;;;;;;8.38;6.78;;;;;;;19.10;58.84;97388.50;10522849;28;20419;-53
2022/10/07 15:48:28;;;;;;;7.28;6.43;;;;;;;19.11;58.89;97388.22;10530855;28;20488;-53
2022/10/07 15:53:48;;;;;;;6.93;6.22;;;;;;;19.10;59.05;97378.50;10497914;28;20120;-53
2022/10/07 15:59:08;;;;;;;7.25;6.55;;;;;;;19.09;59.02;97374.22;10521872;28;20044;-53
2022/10/07 16:04:28;;;;;;;7.93;6.20;;;;;;;19.08;58.98;97375.31;10520613;28;20052;-53
2022/10/07 16:09:47;;;;;;;6.80;6.10;;;;;;;19.08;58.94;97372.59;10506343;28;20056;-53
2022/10/07 16:15:06;;;;;;;6.88;6.00;;;;;;;19.07;59.01;97365.63;10520167;28;20059;-53
2022/10/07 16:20:26;;;;;;;7.07;6.38;;;;;;;19.07;58.82;97373.72;10514426;28;20044;-53
2022/10/07 16:25:46;;;;;;;8.48;6.47;;;;;;;19.07;58.62;97359.41;10516477;28;20044;-52
2022/10/07 16:31:05;;;;;;;6.78;5.97;;;;;;;19.05;58.43;97362.44;10507519;28;20067;-53
2022/10/07 16:36:25;;;;;;;9.23;6.53;;;;;;;19.04;58.34;97366.22;10523196;28;20127;-53
2022/10/07 16:41:45;;;;;;;7.28;6.22;;;;;;;19.04;58.25;97357.34;10518818;28;20060;-52
2022/10/07 16:47:05;;;;;;;6.95;6.00;;;;;;;19.03;58.20;97359.22;10520738;28;20111;-53
2022/10/07 16:52:25;;;;;;;6.97;5.95;;;;;;;19.03;58.21;97359.22;10506717;28;20079;-53
2022/10/07 16:57:46;;;;;;;7.60;6.38;;;;;;;19.04;58.35;97349.22;10515068;28;20048;-53
2022/10/07 17:03:06;;;;;;;7.15;5.85;;;;;;;19.05;58.15;97361.63;10504453;28;20503;-53
2022/10/07 17:08:25;;;;;;;7.20;5.68;;;;;;;19.06;58.66;97357.81;10525364;28;20052;-53
2022/10/07 17:13:45;;;;;;;6.13;5.55;;;;;;;19.06;58.44;97357.81;10519704;28;20048;-53
2022/10/07 17:19:05;;;;;;;6.18;5.65;;;;;;;19.08;58.48;97352.91;10502846;28;20056;-54
2022/10/07 17:24:25;;;;;;;6.97;6.07;;;;;;;19.09;58.47;97349.91;10501745;28;20053;-53
2022/10/07 17:29:44;;;;;;;6.03;5.43;;;;;;;19.09;58.48;97363.41;10547434;28;20039;-53
2022/10/07 17:35:07;;;;;;;7.40;5.82;;;;;;;19.11;58.53;97349.56;10515060;28;20135;-53
2022/10/07 17:40:31;;;;;;;5.97;5.38;;;;;;;19.12;58.70;97346.56;10508723;28;20074;-52
2022/10/07 17:45:50;;;;;;;7.00;5.50;;;;;;;19.14;58.59;97344.38;10486115;28;20047;-53
2022/10/07 17:51:11;;;;;;;6.15;5.55;;;;;;;19.17;58.56;97345.66;10503595;28;20185;-52
2022/10/07 17:56:31;;;;;;;6.55;5.95;;;;;;;19.20;58.58;97346.94;10501962;28;20070;-53
2022/10/07 18:01:50;;;;;;;5.97;5.38;;;;;;;19.20;58.47;97333.44;10503401;28;20393;-53
2022/10/07 18:07:11;;;;;;;6.15;5.55;;;;;;;19.22;58.64;97333.94;10538228;28;20048;-52
2022/10/07 18:18:10;;;;;;;5.78;5.28;;;;;;;19.26;58.46;97332.22;10496937;28;20059;-52
2022/10/07 18:23:30;;;;;;;5.80;5.20;;;;;;;19.28;58.63;97328.06;10511759;28;20041;-53
2022/10/07 18:28:50;;;;;;;5.47;4.97;;;;;;;19.31;58.43;97315.88;10504990;28;20507;-53
2022/10/07 18:34:12;;;;;;;5.82;5.10;;;;;;;19.33;58.55;97319.06;10507122;28;20090;-53
2022/10/07 18:39:31;;;;;;;5.93;5.30;;;;;;;19.35;58.47;97322.25;10509320;28;20063;-53
2022/10/07 18:44:51;;;;;;;5.95;5.20;;;;;;;19.37;58.45;97314.63;10520565;28;20040;-53
2022/10/07 18:50:10;;;;;;;5.75;5.22;;;;;;;19.40;58.45;97310.50;10529145;28;20040;-53
2022/10/07 18:55:29;;;;;;;5.65;5.15;;;;;;;19.42;58.44;97309.09;10507882;28;20051;-53
2022/10/07 19:00:49;;;;;;;5.80;5.30;;;;;;;19.44;58.49;97306.88;10515980;28;20124;-53
2022/10/07 19:06:14;;;;;;;5.72;5.13;;;;;;;19.46;58.40;97307.34;10522196;28;20471;-54
2022/10/07 19:11:34;;;;;;;5.95;5.35;;;;;;;19.49;58.38;97306.75;10523147;28;20392;-52
2022/10/07 19:16:53;;;;;;;5.80;5.25;;;;;;;19.52;58.14;97310.72;10522917;28;20549;-53
2022/10/07 19:22:13;;;;;;;5.78;5.28;;;;;;;19.54;58.33;97309.31;10506662;28;20106;-53
2022/10/07 19:27:33;;;;;;;5.65;5.15;;;;;;;19.55;58.23;97310.91;10500551;28;20442;-52
2022/10/07 19:32:52;;;;;;;5.70;5.20;;;;;;;19.59;58.21;97299.47;10519910;28;20072;-53
2022/10/07 19:38:12;;;;;;;6.00;5.47;;;;;;;19.62;58.14;97309.66;10502712;28;20060;-53
2022/10/07 19:43:33;;;;;;;5.72;5.22;;;;;;;19.64;58.15;97305.53;10522228;28;20051;-53
2022/10/07 19:48:55;;;;;;;5.82;5.32;;;;;;;19.68;58.14;97300.28;10500948;28;20056;-52
2022/10/07 19:54:15;;;;;;;5.30;4.90;;;;;;;19.68;58.14;97300.28;10522898;28;20139;-53
2022/10/07 19:59:34;;;;;;;5.80;5.30;;;;;;;19.72;58.06;97296.69;10530050;28;20043;-53
2022/10/07 20:04:53;;;;;;;4.97;4.57;;;;;;;19.74;58.01;97299.88;10551872;28;20041;-53
2022/10/07 20:10:13;;;;;;;5.80;5.30;;;;;;;19.77;57.92;97294.97;10504475;28;20056;-52
2022/10/07 20:15:33;;;;;;;5.18;4.68;;;;;;;19.81;57.93;97294.00;10513354;28;20063;-52
2022/10/07 20:20:58;;;;;;;5.63;5.10;;;;;;;19.81;57.93;97283.19;10514695;28;20044;-53
2022/10/07 20:26:26;;;;;;;5.50;5.00;;;;;;;19.84;57.83;97287.97;10513853;28;20048;-53
2022/10/07 20:31:45;;;;;;;5.40;4.90;;;;;;;19.84;57.83;97285.28;10501494;28;20063;-53
2022/10/07 20:37:07;;;;;;;5.25;4.50;;;;;;;19.86;57.76;97283.06;10542447;28;20102;-52
2022/10/07 20:42:28;;;;;;;5.32;4.82;;;;;;;19.87;57.65;97273.81;10525418;28;20063;-53
2022/10/07 20:47:48;;;;;;;5.60;5.10;;;;;;;19.90;57.73;97277.81;10528326;28;20052;-54
2022/10/07 20:53:07;;;;;;;5.78;4.97;;;;;;;19.91;57.78;97276.69;10508845;28;20063;-53
2022/10/07 20:58:30;;;;;;;5.25;4.75;;;;;;;19.91;57.66;97266.66;10509479;28;20131;-53
2022/10/07 21:03:49;;;;;;;4.93;4.53;;;;;;;19.94;57.66;97273.38;10501748;28;20053;-53
2022/10/07 21:09:09;;;;;;;4.90;4.50;;;;;;;19.93;57.71;97267.19;10520289;28;20381;-52
2022/10/07 21:14:29;;;;;;;5.15;4.70;;;;;;;19.94;57.65;97263.34;10507406;28;20040;-52
2022/10/07 21:19:48;;;;;;;5.03;4.53;;;;;;;19.95;57.63;97259.53;10521680;28;20056;-53
2022/10/07 21:25:10;;;;;;;4.85;4.45;;;;;;;19.95;57.66;97251.44;10520749;28;20037;-52
2022/10/07 21:30:31;;;;;;;4.95;4.55;;;;;;;19.95;57.60;97245.22;10501564;28;20056;-52
2022/10/07 21:35:50;;;;;;;4.80;4.32;;;;;;;19.97;57.53;97253.00;10525423;28;20479;-53
2022/10/07 21:41:13;;;;;;;5.05;4.55;;;;;;;19.98;57.71;97254.63;10509689;28;20060;-53
2022/10/07 21:46:33;;;;;;;5.20;4.65;;;;;;;19.98;57.63;97246.50;10500606;28;20052;-53
2022/10/07 21:51:53;;;;;;;4.50;4.10;;;;;;;19.98;57.83;97247.28;10512025;28;20052;-53
2022/10/07 21:57:12;;;;;;;4.72;4.30;;;;;;;19.98;57.60;97243.78;10509128;28;20067;-53
2022/10/07 22:02:31;;;;;;;4.55;4.15;;;;;;;19.98;57.54;97235.69;10527996;28;20059;-53
2022/10/07 22:13:31;;;;;;;4.90;4.50;;;;;;;19.99;57.44;97224.53;10508547;28;20079;-53
2022/10/07 22:18:53;;;;;;;4.45;4.05;;;;;;;19.97;57.55;97213.22;10499746;28;20071;-53
2022/10/07 22:24:12;;;;;;;5.13;4.70;;;;;;;19.98;57.51;97214.06;10503516;28;20056;-54
2022/10/07 22:29:33;;;;;;;4.57;4.18;;;;;;;19.98;57.48;97209.44;10519149;28;20062;-52
2022/10/07 22:40:31;;;;;;;4.45;4.05;;;;;;;19.99;57.52;97194.00;10519448;28;20055;-53
2022/10/07 22:45:55;;;;;;;5.68;4.40;;;;;;;19.98;57.46;97187.00;10523690;28;20090;-52
2022/10/07 22:51:16;;;;;;;4.45;4.05;;;;;;;19.97;57.46;97177.28;10507446;28;20499;-53
2022/10/07 22:56:35;;;;;;;4.95;4.10;;;;;;;19.98;57.51;97190.50;10526573;28;20047;-53
2022/10/07 23:01:55;;;;;;;4.60;4.20;;;;;;;19.97;57.56;97180.78;10515012;28;20055;-52
2022/10/07 23:07:14;;;;;;;4.53;4.13;;;;;;;19.96;57.50;97173.81;10510300;28;20052;-53
2022/10/07 23:12:33;;;;;;;4.57;4.18;;;;;;;19.97;57.40;97175.38;10517789;28;20063;-52
2022/10/07 23:17:53;;;;;;;4.28;3.90;;;;;;;19.94;57.46;97166.00;10506577;28;20197;-53
2022/10/07 23:23:12;;;;;;;4.53;4.13;;;;;;;19.95;57.49;97166.78;10513901;28;20052;-52
2022/10/07 23:28:32;;;;;;;4.35;3.95;;;;;;;19.95;57.42;97172.19;10526882;28;20051;-52
2022/10/07 23:33:53;;;;;;;4.32;3.97;;;;;;;19.94;57.35;97163.28;10514699;28;20093;-53
2022/10/07 23:39:12;;;;;;;4.20;3.90;;;;;;;19.94;57.44;97157.88;10520013;28;20060;-53
2022/10/07 23:44:33;;;;;;;4.15;3.80;;;;;;;19.93;57.41;97163.59;10540216;28;20503;-54
2022/10/07 23:49:52;;;;;;;4.22;3.90;;;;;;;19.93;57.48;97159.00;10516521;28;20052;-54
2022/10/07 23:55:11;;;;;;;3.85;3.50;;;;;;;19.94;57.53;97149.78;10498915;28;20048;-53
